Time;durP1;ratioP1;P1;durP2;ratioP2;P2;SDS_P1;SDS_P2;PMS_P1;PMS_P2;Temp;Humidity;BMP_temperature;BMP_pressure;BME280_temperature;BME280_humidity;BME280_pressure;Samples;Min_cycle;Max_cycle;Signal;HPM_P1;HPM_P2
2023/10/10 00:00:54;;;;;;;;;;;;;;;13.08;49.96;100970.66;4977995;27;98758;-56
2023/10/10 00:03:21;;;;;;;;;;;;;;;13.10;50.33;100972.03;4978465;27;98424;-61
2023/10/10 00:05:47;;;;;;;;;;;;;;;13.10;50.37;100971.22;4991753;27;99157;-55
2023/10/10 00:08:15;;;;;;;;;;;;;;;13.11;50.25;100972.84;4980896;27;99935;-61
2023/10/10 00:10:51;;;;;;;;;;;;;;;13.10;50.29;100974.72;4978353;27;98159;-61
2023/10/10 00:13:19;;;;;;;;;;;;;;;13.10;50.37;100963.91;4975698;27;98576;-55
2023/10/10 00:15:50;;;;;;;;;;;;;;;13.11;50.36;100970.13;4977328;27;97937;-56
2023/10/10 00:18:19;;;;;;;;;;;;;;;13.11;50.08;100959.31;4979742;27;99145;-61
2023/10/10 00:21:06;;;;;;;;;;;;;;;13.11;50.17;100956.59;4993403;27;98203;-62
2023/10/10 00:23:38;;;;;;;;;;;;;;;13.12;50.02;100959.03;5015073;27;100601;-61
2023/10/10 00:26:05;;;;;;;;;;;;;;;13.13;49.99;100960.66;4995798;27;97967;-55
2023/10/10 00:28:34;;;;;;;;;;;;;;;13.12;50.27;100948.19;5012453;27;98316;-55
2023/10/10 00:31:05;;;;;;;;;;;;;;;13.12;50.19;100950.91;5011198;27;98215;-56
2023/10/10 00:33:31;;;;;;;;;;;;;;;13.13;50.27;100955.25;4975939;27;100743;-61
2023/10/10 00:35:58;;;;;;;;;;;;;;;13.14;50.19;100950.66;4978767;27;98391;-62
2023/10/10 00:38:29;;;;;;;;;;;;;;;13.14;50.15;100942.53;4971517;27;98601;-56
2023/10/10 00:40:57;;;;;;;;;;;;;;;13.13;50.11;100944.41;4998151;27;98555;-61
2023/10/10 00:43:24;;;;;;;;;;;;;;;13.13;50.19;100944.41;4996487;27;97965;-61
2023/10/10 00:45:54;;;;;;;;;;;;;;;13.13;50.17;100946.31;4983738;27;98860;-56
2023/10/10 00:48:22;;;;;;;;;;;;;;;13.13;50.26;100947.13;5006657;27;98129;-61
2023/10/10 00:51:05;;;;;;;;;;;;;;;13.19;50.17;100942.50;4987994;27;99649;-55
2023/10/10 00:53:33;;;;;;;;;;;;;;;13.28;50.19;100940.88;4990002;27;99194;-61
2023/10/10 00:55:59;;;;;;;;;;;;;;;13.36;50.16;100936.81;4970368;27;99096;-61
2023/10/10 00:58:35;;;;;;;;;;;;;;;13.39;50.12;100937.06;4977881;27;98831;-61
2023/10/10 01:01:07;;;;;;;;;;;;;;;13.44;50.42;100938.97;4985928;27;99795;-55
2023/10/10 01:03:34;;;;;;;;;;;;;;;13.47;50.37;100941.13;4967225;27;99894;-56
2023/10/10 01:06:05;;;;;;;;;;;;;;;13.49;50.17;100942.47;4992239;27;98625;-61
2023/10/10 01:08:51;;;;;;;;;;;;;;;13.50;50.14;100929.75;4999824;27;98417;-61
2023/10/10 01:11:17;;;;;;;;;;;;;;;13.53;50.11;100931.91;5006067;27;98715;-61
2023/10/10 01:13:43;;;;;;;;;;;;;;;13.54;49.98;100927.31;4995780;27;102478;-55
2023/10/10 01:16:11;;;;;;;;;;;;;;;13.55;50.01;100921.59;4993159;27;99790;-56
2023/10/10 01:18:51;;;;;;;;;;;;;;;13.55;49.90;100924.31;4979548;27;99730;-55
2023/10/10 01:21:33;;;;;;;;;;;;;;;13.56;50.25;100915.13;4983223;27;98850;-55
2023/10/10 01:24:07;;;;;;;;;;;;;;;13.56;50.09;100922.41;4980369;27;99870;-55
2023/10/10 01:26:37;;;;;;;;;;;;;;;13.57;50.44;100926.75;4981854;27;99141;-61
2023/10/10 01:29:14;;;;;;;;;;;;;;;13.57;50.13;100924.84;4998573;27;98477;-62
2023/10/10 01:31:42;;;;;;;;;;;;;;;13.59;50.29;100924.56;4971099;27;99461;-61
2023/10/10 01:34:09;;;;;;;;;;;;;;;13.58;50.50;100934.59;4979593;27;98757;-56
2023/10/10 01:36:38;;;;;;;;;;;;;;;13.60;50.50;100929.72;4997317;27;98082;-56
2023/10/10 01:39:22;;;;;;;;;;;;;;;13.61;50.29;100938.66;4981989;27;98263;-56
2023/10/10 01:41:51;;;;;;;;;;;;;;;13.61;50.47;100942.19;4995129;27;98250;-61
2023/10/10 01:44:18;;;;;;;;;;;;;;;13.62;50.55;100935.66;5010418;27;98549;-56
2023/10/10 01:46:45;;;;;;;;;;;;;;;13.63;50.17;100941.88;4996131;27;98977;-56
2023/10/10 01:49:13;;;;;;;;;;;;;;;13.63;50.17;100941.88;4982568;27;97988;-61
2023/10/10 01:51:42;;;;;;;;;;;;;;;13.63;50.47;100934.56;5006458;27;98272;-61
2023/10/10 01:54:17;;;;;;;;;;;;;;;13.66;50.39;100938.63;4979800;27;98566;-56
2023/10/10 01:56:43;;;;;;;;;;;;;;;13.66;50.58;100939.44;4999626;27;98431;-55
2023/10/10 01:59:13;;;;;;;;;;;;;;;13.68;50.16;100939.19;4980182;27;101483;-62
2023/10/10 02:01:40;;;;;;;;;;;;;;;13.69;50.37;100943.50;4996186;27;98213;-56
2023/10/10 02:04:07;;;;;;;;;;;;;;;13.69;50.56;100944.31;4996626;27;98658;-61
2023/10/10 02:06:35;;;;;;;;;;;;;;;13.70;50.45;100934.28;4997182;27;98376;-62
2023/10/10 02:09:11;;;;;;;;;;;;;;;13.71;50.23;100925.88;5000625;27;97991;-61
2023/10/10 02:11:39;;;;;;;;;;;;;;;13.72;50.23;100932.13;4987664;27;98416;-56
2023/10/10 02:14:11;;;;;;;;;;;;;;;13.72;50.30;100927.50;4996375;27;100742;-61
2023/10/10 02:16:40;;;;;;;;;;;;;;;13.73;50.45;100928.31;4996110;27;98983;-61
2023/10/10 02:19:15;;;;;;;;;;;;;;;13.74;50.23;100925.31;5014063;27;97997;-61
2023/10/10 02:22:02;;;;;;;;;;;;;;;13.75;50.40;100935.09;4966095;27;100812;-61
2023/10/10 02:26:55;;;;;;;;;;;;;;;13.77;50.40;100934.81;4996767;27;98265;-56
2023/10/10 02:32:24;;;;;;;;;;;;;;;13.78;50.31;100933.72;4995755;27;99102;-56
2023/10/10 02:34:43;;;;;;;;;;;;;;;13.80;50.24;100923.41;4995951;27;98582;-61
2023/10/10 02:40:07;;;;;;;;;;;;;;;13.82;50.61;100925.84;4997381;27;98268;-62
2023/10/10 02:42:33;;;;;;;;;;;;;;;13.83;50.48;100922.84;4984681;27;98326;-56
2023/10/10 02:45:00;;;;;;;;;;;;;;;13.84;50.33;100923.69;5008146;27;98416;-56
2023/10/10 02:47:32;;;;;;;;;;;;;;;13.84;50.63;100940.75;4979526;27;97936;-61
2023/10/10 02:50:09;;;;;;;;;;;;;;;13.86;50.58;100943.16;4997737;27;99839;-55
2023/10/10 02:52:39;;;;;;;;;;;;;;;13.87;50.29;100944.78;4996921;27;98521;-61
2023/10/10 02:55:14;;;;;;;;;;;;;;;13.87;50.39;100939.34;4984050;27;98136;-61
2023/10/10 02:57:41;;;;;;;;;;;;;;;13.87;50.49;100934.78;4943431;27;98827;-61
2023/10/10 03:00:15;;;;;;;;;;;;;;;13.89;50.42;100935.28;4963074;27;98796;-61
2023/10/10 03:02:49;;;;;;;;;;;;;;;13.89;50.51;100938.00;4996525;27;98694;-61
2023/10/10 03:05:16;;;;;;;;;;;;;;;13.90;50.39;100942.31;4978478;27;103318;-61
2023/10/10 03:07:51;;;;;;;;;;;;;;;13.91;50.48;100943.97;4962253;27;98203;-55
2023/10/10 03:10:22;;;;;;;;;;;;;;;13.92;50.71;100939.34;4965922;27;99128;-56
2023/10/10 03:13:03;;;;;;;;;;;;;;;13.92;50.77;100940.16;4979895;27;99762;-61
2023/10/10 03:15:31;;;;;;;;;;;;;;;13.92;50.45;100942.88;4981112;27;98440;-62
2023/10/10 03:31:04;;;;;;;;;;;;;;;13.96;50.65;100933.09;4993328;27;99152;-56
2023/10/10 03:41:26;;;;;;;;;;;;;;;13.99;50.38;100964.25;5007935;27;98439;-61
2023/10/10 05:25:37;;;;;;;;;;;;;;;14.13;51.00;100976.09;5017930;27;99012;-56
2023/10/10 05:28:03;;;;;;;;;;;;;;;14.14;50.86;100975.00;5002132;27;97871;-62
2023/10/10 05:30:39;;;;;;;;;;;;;;;14.14;50.64;100977.72;4998923;27;98333;-56
2023/10/10 05:33:05;;;;;;;;;;;;;;;14.17;50.76;100984.50;4978673;27;98286;-62
2023/10/10 05:35:36;;;;;;;;;;;;;;;14.17;50.60;100985.31;4993287;27;98741;-62
2023/10/10 05:38:04;;;;;;;;;;;;;;;14.19;50.68;100979.63;4995361;27;99098;-62
2023/10/10 05:40:33;;;;;;;;;;;;;;;14.21;50.65;100989.06;4980302;27;98352;-56
2023/10/10 05:43:26;;;;;;;;;;;;;;;14.27;50.45;100989.88;4982361;27;99103;-61
2023/10/10 05:45:53;;;;;;;;;;;;;;;14.33;50.58;100983.31;4986176;27;99463;-56
2023/10/10 05:48:19;;;;;;;;;;;;;;;14.37;50.41;100989.00;5004124;27;100343;-56
2023/10/10 05:50:48;;;;;;;;;;;;;;;14.42;50.79;100991.66;4963955;27;98755;-62
2023/10/10 05:53:16;;;;;;;;;;;;;;;14.47;50.67;100991.66;5000379;27;98954;-62
2023/10/10 05:55:43;;;;;;;;;;;;;;;14.48;50.82;100985.13;4986086;27;99195;-56
2023/10/10 05:58:10;;;;;;;;;;;;;;;14.45;50.69;100997.34;4978663;27;98346;-56
2023/10/10 06:00:36;;;;;;;;;;;;;;;14.47;50.42;100997.91;5013463;27;100569;-56
2023/10/10 06:03:05;;;;;;;;;;;;;;;14.53;50.62;100995.16;4998933;27;129034;-62
2023/10/10 06:05:34;;;;;;;;;;;;;;;14.54;50.46;100994.06;4958975;27;129138;-56
2023/10/10 06:08:01;;;;;;;;;;;;;;;14.57;50.40;100997.03;4986769;27;98324;-62
2023/10/10 06:10:31;;;;;;;;;;;;;;;14.60;50.67;100993.78;4999029;27;98427;-62
2023/10/10 06:12:57;;;;;;;;;;;;;;;14.63;50.23;101005.97;5010217;27;99688;-56
2023/10/10 06:15:23;;;;;;;;;;;;;;;14.73;50.55;101005.88;4982166;27;101746;-62
2023/10/10 06:17:49;;;;;;;;;;;;;;;14.81;50.50;101021.56;4982245;27;98381;-62
2023/10/10 06:20:21;;;;;;;;;;;;;;;14.87;50.36;101014.22;4980665;27;98143;-62
2023/10/10 06:22:54;;;;;;;;;;;;;;;15.07;50.08;101024.91;4981817;27;100700;-62
2023/10/10 06:25:21;;;;;;;;;;;;;;;15.16;49.93;101025.91;4967487;27;98947;-62
2023/10/10 06:27:54;;;;;;;;;;;;;;;15.21;50.18;101031.31;4979186;27;99006;-62
2023/10/10 06:30:24;;;;;;;;;;;;;;;15.24;49.93;101027.22;4983953;27;98080;-62
2023/10/10 06:32:51;;;;;;;;;;;;;;;15.26;49.77;101035.09;4997319;27;98234;-62
2023/10/10 06:37:52;;;;;;;;;;;;;;;15.31;50.14;101040.47;4994656;27;98064;-57
2023/10/10 06:40:25;;;;;;;;;;;;;;;15.45;49.77;101038.72;4983640;27;99450;-62
2023/10/10 06:42:56;;;;;;;;;;;;;;;15.62;49.83;101041.00;4967742;27;100418;-56
2023/10/10 06:45:25;;;;;;;;;;;;;;;15.85;49.56;101034.81;5002119;27;99967;-56
2023/10/10 06:47:52;;;;;;;;;;;;;;;16.07;49.30;101033.47;5001152;27;98124;-62
2023/10/10 06:50:31;;;;;;;;;;;;;;;16.18;49.31;101029.50;4983620;27;98265;-56
2023/10/10 06:53:00;;;;;;;;;;;;;;;16.27;49.44;101035.13;4985991;27;99651;-57
2023/10/10 06:55:36;;;;;;;;;;;;;;;16.26;49.59;101042.47;4967720;27;98967;-62
2023/10/10 06:58:05;;;;;;;;;;;;;;;16.30;49.34;101038.06;4981751;27;98082;-56
2023/10/10 07:00:44;;;;;;;;;;;;;;;16.33;49.60;101032.03;4984183;27;98128;-62
2023/10/10 07:03:11;;;;;;;;;;;;;;;16.39;49.40;101046.41;4997907;27;98725;-62
2023/10/10 07:05:39;;;;;;;;;;;;;;;16.40;49.62;101045.31;4979918;27;98148;-62
2023/10/10 07:08:24;;;;;;;;;;;;;;;16.46;49.61;101046.84;4982227;27;98769;-56
2023/10/10 07:10:53;;;;;;;;;;;;;;;16.52;49.47;101050.31;4984479;27;98086;-62
2023/10/10 07:13:29;;;;;;;;;;;;;;;16.58;49.48;101052.66;4979523;27;98295;-59
2023/10/10 07:15:55;;;;;;;;;;;;;;;16.68;49.44;101049.81;4994854;27;98308;-62
2023/10/10 07:18:24;;;;;;;;;;;;;;;16.75;49.36;101051.38;4980794;27;99515;-56
2023/10/10 07:21:04;;;;;;;;;;;;;;;16.82;49.35;101043.63;4996688;27;98082;-56
2023/10/10 07:23:37;;;;;;;;;;;;;;;16.89;49.29;101038.63;4998442;27;98945;-56
2023/10/10 07:26:07;;;;;;;;;;;;;;;16.90;49.58;101038.34;4965231;27;97920;-57
2023/10/10 07:28:48;;;;;;;;;;;;;;;16.87;49.53;101044.38;4982406;27;98944;-62
2023/10/10 07:31:21;;;;;;;;;;;;;;;16.78;49.45;101051.63;4965842;27;98441;-56
2023/10/10 07:34:03;;;;;;;;;;;;;;;16.74;49.64;101055.19;4965082;27;98619;-62
2023/10/10 07:36:29;;;;;;;;;;;;;;;16.72;49.53;101054.66;4996440;27;101407;-62
2023/10/10 07:39:32;;;;;;;;;;;;;;;16.73;49.74;101057.09;5012656;27;98183;-63
2023/10/10 07:41:47;;;;;;;;;;;;;;;16.79;49.66;101055.94;4982230;27;99806;-56
2023/10/10 07:44:16;;;;;;;;;;;;;;;16.79;49.55;101064.13;4975839;27;100237;-56
2023/10/10 07:47:07;;;;;;;;;;;;;;;16.73;49.71;101064.44;4979188;27;99585;-56
2023/10/10 07:49:28;;;;;;;;;;;;;;;16.76;49.66;101061.97;4995345;27;98035;-56
2023/10/10 07:51:54;;;;;;;;;;;;;;;16.78;49.71;101067.09;4995478;27;98083;-62
2023/10/10 07:54:38;;;;;;;;;;;;;;;16.87;49.51;101065.38;4996673;27;98516;-62
2023/10/10 07:57:07;;;;;;;;;;;;;;;16.87;49.52;101063.44;4981502;27;100143;-62
2023/10/10 07:59:36;;;;;;;;;;;;;;;16.89;49.73;101074.03;4992465;27;98190;-56
2023/10/10 08:02:19;;;;;;;;;;;;;;;16.98;49.66;101069.56;4991834;27;100164;-63
2023/10/10 08:04:50;;;;;;;;;;;;;;;17.11;49.40;101076.16;4998400;27;98811;-62
2023/10/10 08:07:19;;;;;;;;;;;;;;;17.52;49.04;101068.09;5015944;27;98849;-63
2023/10/10 08:09:46;;;;;;;;;;;;;;;18.15;48.39;101063.97;4994847;27;98121;-56
2023/10/10 08:12:13;;;;;;;;;;;;;;;18.50;47.99;101047.97;4997429;27;99681;-56
2023/10/10 08:14:39;;;;;;;;;;;;;;;18.47;48.27;101052.13;4980372;27;98759;-56
2023/10/10 08:17:18;;;;;;;;;;;;;;;18.36;48.60;101061.66;4979499;27;100064;-56
2023/10/10 08:19:53;;;;;;;;;;;;;;;18.29;48.60;101064.78;4995493;27;98324;-56
2023/10/10 08:22:25;;;;;;;;;;;;;;;18.31;48.82;101068.03;4998215;27;98405;-62
2023/10/10 08:24:51;;;;;;;;;;;;;;;18.25;48.79;101071.94;4984729;27;98474;-57
2023/10/10 08:27:17;;;;;;;;;;;;;;;18.12;48.98;101070.06;4963574;27;98003;-62
2023/10/10 08:29:45;;;;;;;;;;;;;;;17.89;49.18;101074.59;4994443;27;119516;-56
2023/10/10 08:32:12;;;;;;;;;;;;;;;17.70;49.60;101069.16;4996462;27;98098;-56
2023/10/10 08:34:42;;;;;;;;;;;;;;;17.61;49.67;101073.69;4991657;27;101604;-62
2023/10/10 08:37:09;;;;;;;;;;;;;;;17.45;49.83;101075.88;4966224;27;98489;-56
2023/10/10 08:39:35;;;;;;;;;;;;;;;17.50;49.65;101075.78;4962018;27;99126;-56
2023/10/10 08:42:05;;;;;;;;;;;;;;;17.52;49.74;101067.31;4979913;27;98460;-56
2023/10/10 08:44:37;;;;;;;;;;;;;;;17.51;49.79;101071.94;5001252;27;98199;-56
2023/10/10 08:47:07;;;;;;;;;;;;;;;17.62;49.43;101073.38;4986161;27;98293;-58
2023/10/10 08:49:33;;;;;;;;;;;;;;;17.97;49.00;101073.06;4988472;27;98617;-62
2023/10/10 08:52:02;;;;;;;;;;;;;;;18.75;48.09;101063.81;5015653;27;98043;-57
2023/10/10 08:54:29;;;;;;;;;;;;;;;18.82;48.32;101066.94;5003019;27;99593;-63
2023/10/10 08:57:02;;;;;;;;;;;;;;;18.84;48.38;101072.88;5014148;27;98323;-56
2023/10/10 08:59:29;;;;;;;;;;;;;;;18.91;48.52;101063.47;4996334;27;99217;-62
2023/10/10 09:02:19;;;;;;;;;;;;;;;18.77;48.70;101068.97;4999218;27;99802;-62
2023/10/10 09:04:45;;;;;;;;;;;;;;;18.57;49.13;101079.19;4999752;27;98329;-62
2023/10/10 09:07:19;;;;;;;;;;;;;;;18.35;49.23;101081.84;4984701;27;98415;-62
2023/10/10 09:09:55;;;;;;;;;;;;;;;18.18;49.41;101079.72;5000487;27;98881;-62
2023/10/10 09:12:21;;;;;;;;;;;;;;;18.33;49.39;101078.63;4985394;27;97880;-56
2023/10/10 09:14:50;;;;;;;;;;;;;;;18.47;49.00;101079.44;5001686;27;100402;-62
2023/10/10 09:17:35;;;;;;;;;;;;;;;18.68;48.72;101076.25;4986813;27;98539;-56
2023/10/10 09:20:22;;;;;;;;;;;;;;;18.84;48.75;101072.09;4979717;27;98549;-56
2023/10/10 09:22:52;;;;;;;;;;;;;;;18.95;48.60;101070.72;4988103;27;97977;-62
2023/10/10 09:25:48;;;;;;;;;;;;;;;19.13;48.58;101080.66;5016280;27;100032;-62
2023/10/10 09:28:16;;;;;;;;;;;;;;;19.38;48.28;101072.97;4987279;27;98300;-56
2023/10/10 09:30:45;;;;;;;;;;;;;;;19.51;48.04;101080.28;4998351;27;98661;-62
2023/10/10 09:33:27;;;;;;;;;;;;;;;19.58;48.22;101077.13;4995111;27;98361;-58
2023/10/10 09:38:54;;;;;;;;;;;;;;;19.30;48.61;101084.66;4986803;27;98915;-56
2023/10/10 09:55:25;;;;;;;;;;;;;;;19.58;48.48;101082.59;5006326;27;98209;-56
2023/10/10 09:58:15;;;;;;;;;;;;;;;19.42;48.62;101090.38;4984442;27;101601;-62
2023/10/10 10:09:09;;;;;;;;;;;;;;;19.48;48.61;101096.50;4997157;27;98201;-61
2023/10/10 10:12:04;;;;;;;;;;;;;;;19.85;48.21;101095.31;4985150;27;98237;-62
2023/10/10 10:14:54;;;;;;;;;;;;;;;20.17;47.83;101096.88;4999998;27;98154;-56
2023/10/10 10:17:54;;;;;;;;;;;;;;;20.27;47.87;101090.31;4984616;27;98602;-62
2023/10/10 10:20:44;;;;;;;;;;;;;;;20.25;47.95;101101.59;4999852;27;98407;-62
2023/10/10 10:23:26;;;;;;;;;;;;;;;20.57;47.55;101099.59;4985101;27;98039;-56
2023/10/10 10:26:04;;;;;;;;;;;;;;;20.21;48.27;101097.06;5010808;27;100791;-56
2023/10/10 10:28:37;;;;;;;;;;;;;;;20.05;48.45;101102.97;4996841;27;98749;-62
2023/10/10 10:31:16;;;;;;;;;;;;;;;19.89;48.47;101099.03;4998522;27;100498;-62
2023/10/10 10:34:05;;;;;;;;;;;;;;;19.80;48.65;101101.69;4984698;27;98673;-62
2023/10/10 10:36:45;;;;;;;;;;;;;;;20.13;48.11;101097.84;4985065;27;98038;-56
2023/10/10 10:39:19;;;;;;;;;;;;;;;20.50;47.83;101088.31;4996620;27;98061;-56
2023/10/10 10:41:51;;;;;;;;;;;;;;;20.72;47.59;101101.09;4981862;27;98095;-62
2023/10/10 10:44:44;;;;;;;;;;;;;;;20.82;47.57;101095.28;4981871;27;98329;-56
2023/10/10 10:47:35;;;;;;;;;;;;;;;20.87;47.73;101084.19;4982580;27;99224;-55
2023/10/10 10:50:05;;;;;;;;;;;;;;;20.93;47.64;101085.63;4998161;27;98366;-56
2023/10/10 10:52:47;;;;;;;;;;;;;;;20.94;47.58;101084.47;4998291;27;98164;-62
2023/10/10 10:55:22;;;;;;;;;;;;;;;21.02;47.64;101080.94;5000630;27;105520;-58
2023/10/10 10:58:06;;;;;;;;;;;;;;;21.01;47.61;101081.25;4985303;27;98465;-56
2023/10/10 11:01:07;;;;;;;;;;;;;;;20.95;47.69;101079.84;4985204;27;98330;-56
2023/10/10 11:03:36;;;;;;;;;;;;;;;20.95;47.80;101075.16;4989000;27;98390;-56
2023/10/10 11:06:06;;;;;;;;;;;;;;;20.91;47.77;101081.59;4974759;27;99397;-62
2023/10/10 11:14:03;;;;;;;;;;;;;;;20.44;48.36;101067.66;5008862;27;98280;-59
2023/10/10 11:16:44;;;;;;;;;;;;;;;20.15;48.70;101071.75;4986345;27;100535;-62
2023/10/10 11:21:48;;;;;;;;;;;;;;;19.91;48.76;101074.09;4996672;27;98430;-62
2023/10/10 11:24:23;;;;;;;;;;;;;;;19.80;48.85;101073.53;4981602;27;98072;-56
2023/10/10 11:27:07;;;;;;;;;;;;;;;19.75;49.06;101076.44;5000015;27;98111;-62
2023/10/10 11:29:45;;;;;;;;;;;;;;;19.66;49.05;101072.84;4986976;27;98245;-62
2023/10/10 11:32:15;;;;;;;;;;;;;;;19.64;48.94;101061.41;4997126;27;98658;-56
2023/10/10 11:34:44;;;;;;;;;;;;;;;19.71;48.86;101067.25;4983127;27;98436;-62
2023/10/10 11:37:14;;;;;;;;;;;;;;;19.73;48.68;101063.06;4977197;27;98328;-63
2023/10/10 11:39:47;;;;;;;;;;;;;;;19.83;48.60;101056.50;5014977;27;98703;-62
2023/10/10 11:42:30;;;;;;;;;;;;;;;19.89;48.72;101046.25;5014925;27;100029;-56
2023/10/10 11:45:17;;;;;;;;;;;;;;;19.93;48.58;101052.72;4981949;27;97998;-62
2023/10/10 11:47:44;;;;;;;;;;;;;;;19.97;48.54;101059.97;4998372;27;98350;-56
2023/10/10 11:50:12;;;;;;;;;;;;;;;19.92;48.66;101062.00;4966361;27;99903;-62
2023/10/10 11:52:56;;;;;;;;;;;;;;;19.83;48.74;101046.38;4981031;27;101119;-56
2023/10/10 11:55:23;;;;;;;;;;;;;;;19.89;48.57;101054.47;4980807;27;100188;-62
2023/10/10 11:57:50;;;;;;;;;;;;;;;19.91;48.68;101046.72;4985139;27;101026;-62
2023/10/10 12:00:22;;;;;;;;;;;;;;;19.91;48.65;101050.25;4996934;27;99080;-56
2023/10/10 12:02:51;;;;;;;;;;;;;;;19.84;48.80;101045.25;4996986;27;102407;-56
2023/10/10 12:08:05;;;;;;;;;;;;;;;19.86;48.72;101045.75;4979598;27;98302;-62
2023/10/10 12:10:45;;;;;;;;;;;;;;;19.79;48.87;101045.41;5008696;27;98275;-56
2023/10/10 12:13:19;;;;;;;;;;;;;;;19.73;48.74;101051.31;5011483;27;98430;-62
2023/10/10 12:15:46;;;;;;;;;;;;;;;19.76;48.79;101046.03;4967203;27;98600;-62
2023/10/10 12:18:13;;;;;;;;;;;;;;;19.78;48.74;101038.31;4978936;27;98794;-56
2023/10/10 12:20:44;;;;;;;;;;;;;;;19.77;48.61;101046.84;5009001;27;98484;-62
2023/10/10 12:23:13;;;;;;;;;;;;;;;19.69;48.79;101050.31;4986660;27;98054;-62
2023/10/10 12:25:42;;;;;;;;;;;;;;;19.58;49.03;101049.78;5002077;27;97911;-56
2023/10/10 12:28:09;;;;;;;;;;;;;;;19.48;49.04;101041.84;5000854;27;100101;-62
2023/10/10 12:30:40;;;;;;;;;;;;;;;19.51;48.91;101042.00;5001161;27;98293;-56
2023/10/10 12:33:12;;;;;;;;;;;;;;;19.56;48.98;101049.28;4962590;27;98206;-62
2023/10/10 12:35:43;;;;;;;;;;;;;;;19.63;48.74;101040.66;4966853;27;98814;-62
2023/10/10 12:38:09;;;;;;;;;;;;;;;19.76;48.69;101042.47;5011237;27;99264;-62
2023/10/10 12:40:35;;;;;;;;;;;;;;;19.90;48.55;101042.38;4984333;27;103797;-56
2023/10/10 12:43:02;;;;;;;;;;;;;;;20.10;48.34;101036.34;4985131;27;100579;-62
2023/10/10 12:45:29;;;;;;;;;;;;;;;20.21;48.26;101015.75;4983155;27;99568;-62
2023/10/10 12:47:58;;;;;;;;;;;;;;;20.31;48.16;101018.19;4980796;27;98412;-56
2023/10/10 12:50:28;;;;;;;;;;;;;;;20.68;47.79;101015.22;5001257;27;98329;-56
2023/10/10 12:53:07;;;;;;;;;;;;;;;20.77;47.70;101005.03;4981547;27;98850;-56
2023/10/10 12:55:46;;;;;;;;;;;;;;;21.09;47.45;101009.19;4988087;27;99835;-56
2023/10/10 12:58:15;;;;;;;;;;;;;;;21.30;47.36;101007.41;4996732;27;98471;-63
2023/10/10 13:00:51;;;;;;;;;;;;;;;21.77;46.83;101004.69;4963485;27;98111;-56
2023/10/10 13:03:23;;;;;;;;;;;;;;;21.99;46.84;101011.00;4988012;27;98892;-56
2023/10/10 13:05:52;;;;;;;;;;;;;;;21.91;46.86;101006.38;5000145;27;98482;-56
2023/10/10 13:08:20;;;;;;;;;;;;;;;21.72;47.17;101002.09;4967963;27;98897;-62
2023/10/10 13:10:54;;;;;;;;;;;;;;;21.59;47.39;101002.34;5003344;27;98189;-62
2023/10/10 13:13:31;;;;;;;;;;;;;;;21.53;47.70;101001.69;4997998;27;98748;-56
2023/10/10 13:18:43;;;;;;;;;;;;;;;21.44;47.79;101001.72;5008597;27;98825;-56
2023/10/10 13:21:08;;;;;;;;;;;;;;;21.53;47.45;100999.75;5010678;27;99547;-62
2023/10/10 13:23:37;;;;;;;;;;;;;;;21.53;47.78;100988.78;4969463;27;103176;-56
2023/10/10 13:26:07;;;;;;;;;;;;;;;21.49;47.83;100989.78;4971204;27;99918;-56
2023/10/10 13:28:33;;;;;;;;;;;;;;;21.55;47.82;100977.50;4986542;27;98807;-62
2023/10/10 13:31:02;;;;;;;;;;;;;;;21.70;47.67;100978.91;4982483;27;98371;-56
2023/10/10 13:33:28;;;;;;;;;;;;;;;21.60;47.78;100980.06;4995483;27;98051;-62
2023/10/10 13:35:53;;;;;;;;;;;;;;;21.53;47.86;100983.28;4983478;27;98596;-56
2023/10/10 13:38:19;;;;;;;;;;;;;;;21.41;48.06;100998.84;5009779;27;106583;-62
2023/10/10 13:40:48;;;;;;;;;;;;;;;21.23;48.20;100990.63;4981379;27;98660;-56
2023/10/10 13:43:18;;;;;;;;;;;;;;;21.02;48.47;100981.47;5000841;27;101575;-62
2023/10/10 13:45:51;;;;;;;;;;;;;;;20.88;48.55;100964.44;4968589;27;99510;-56
2023/10/10 13:48:23;;;;;;;;;;;;;;;20.87;48.53;100960.91;4968821;27;98591;-62
2023/10/10 13:50:52;;;;;;;;;;;;;;;20.96;48.48;100961.69;5004402;27;98857;-62
2023/10/10 13:53:20;;;;;;;;;;;;;;;21.03;48.31;100972.16;4991251;27;101214;-63
2023/10/10 13:55:46;;;;;;;;;;;;;;;20.95;48.54;100975.72;4993285;27;98428;-62
2023/10/10 13:58:13;;;;;;;;;;;;;;;20.94;48.35;100976.81;5001254;27;100106;-62
2023/10/10 14:00:41;;;;;;;;;;;;;;;20.87;48.54;100977.34;4989530;27;99292;-62
2023/10/10 14:03:07;;;;;;;;;;;;;;;20.75;48.70;100974.41;4979171;27;98392;-63
2023/10/10 14:05:38;;;;;;;;;;;;;;;20.68;48.82;100968.66;4964078;27;98792;-55
2023/10/10 14:08:07;;;;;;;;;;;;;;;20.67;48.95;100967.00;4974737;27;98559;-62
2023/10/10 14:10:38;;;;;;;;;;;;;;;20.59;48.73;100966.72;4983558;27;98454;-56
2023/10/10 14:13:19;;;;;;;;;;;;;;;20.69;48.66;100970.25;4976185;27;98362;-62
2023/10/10 14:15:56;;;;;;;;;;;;;;;20.68;48.59;100966.72;4996618;27;99201;-61
2023/10/10 14:18:29;;;;;;;;;;;;;;;20.53;48.80;100965.25;4994819;27;100145;-62
2023/10/10 14:20:56;;;;;;;;;;;;;;;20.30;49.09;100969.25;4993532;27;98727;-62
2023/10/10 14:23:24;;;;;;;;;;;;;;;20.15;49.28;100965.03;4978788;27;99567;-62
2023/10/10 14:26:03;;;;;;;;;;;;;;;20.13;49.18;100961.81;4955292;27;100232;-56
2023/10/10 14:28:29;;;;;;;;;;;;;;;20.10;49.15;100959.72;4982217;27;98306;-55
2023/10/10 14:30:57;;;;;;;;;;;;;;;20.05;49.19;100957.94;4979611;27;119286;-56
2023/10/10 14:33:25;;;;;;;;;;;;;;;20.05;49.23;100957.16;4953711;27;98030;-56
2023/10/10 14:35:51;;;;;;;;;;;;;;;19.98;49.39;100956.81;4990822;27;98737;-56
2023/10/10 14:38:18;;;;;;;;;;;;;;;19.92;49.22;100964.34;4991718;27;100495;-62
2023/10/10 14:40:44;;;;;;;;;;;;;;;19.91;49.28;100957.25;4978818;27;98667;-62
2023/10/10 14:43:11;;;;;;;;;;;;;;;19.82;49.37;100959.97;4979033;27;98139;-62
2023/10/10 14:45:43;;;;;;;;;;;;;;;19.72;49.45;100959.47;4997138;27;99238;-62
2023/10/10 14:48:18;;;;;;;;;;;;;;;19.70;49.50;100964.44;4995856;27;100581;-61
2023/10/10 14:50:52;;;;;;;;;;;;;;;19.65;49.25;100959.09;4995654;27;99257;-56
2023/10/10 14:53:22;;;;;;;;;;;;;;;19.60;49.62;100960.03;4994503;27;99023;-56
2023/10/10 14:55:51;;;;;;;;;;;;;;;19.54;49.40;100959.38;4961935;27;99878;-61
2023/10/10 14:58:21;;;;;;;;;;;;;;;19.50;49.50;100963.06;4967011;27;98182;-62
2023/10/10 15:00:52;;;;;;;;;;;;;;;19.42;49.74;100958.38;4965463;27;98872;-62
2023/10/10 15:03:18;;;;;;;;;;;;;;;19.38;49.49;100953.53;4997247;27;98518;-56
2023/10/10 15:05:51;;;;;;;;;;;;;;;19.32;49.74;100954.75;4977230;27;98661;-62
2023/10/10 15:08:19;;;;;;;;;;;;;;;19.29;49.66;100947.19;4978599;27;100076;-62
2023/10/10 15:10:45;;;;;;;;;;;;;;;19.28;49.56;100952.97;4963321;27;98107;-56
2023/10/10 15:13:15;;;;;;;;;;;;;;;19.21;49.68;100950.69;5013416;27;98342;-62
2023/10/10 15:15:45;;;;;;;;;;;;;;;19.12;49.71;100958.84;5014851;27;100834;-62
2023/10/10 15:18:13;;;;;;;;;;;;;;;19.01;49.91;100951.22;4995167;27;98274;-55
2023/10/10 15:20:45;;;;;;;;;;;;;;;18.92;49.75;100942.97;4998418;27;98427;-55
2023/10/10 15:23:12;;;;;;;;;;;;;;;18.83;50.05;100942.13;4999269;27;99220;-56
2023/10/10 15:25:39;;;;;;;;;;;;;;;18.76;49.74;100941.75;4981644;27;99418;-55
2023/10/10 15:28:07;;;;;;;;;;;;;;;18.69;49.99;100935.88;4982898;27;99850;-56
2023/10/10 15:30:36;;;;;;;;;;;;;;;18.60;50.09;100938.56;4999207;27;99634;-55
2023/10/10 15:33:05;;;;;;;;;;;;;;;18.54;50.06;100929.66;4990493;27;98790;-62
2023/10/10 15:35:38;;;;;;;;;;;;;;;18.48;49.90;100922.72;4983461;27;100260;-61
2023/10/10 15:38:09;;;;;;;;;;;;;;;18.41;50.05;100927.81;5009312;27;98362;-62
2023/10/10 15:40:39;;;;;;;;;;;;;;;18.33;50.04;100932.06;4985950;27;101277;-62
2023/10/10 15:43:05;;;;;;;;;;;;;;;18.28;50.20;100923.22;4999141;27;98287;-61
2023/10/10 15:45:37;;;;;;;;;;;;;;;18.22;50.17;100924.44;4994637;27;115127;-56
2023/10/10 15:48:05;;;;;;;;;;;;;;;18.17;50.10;100933.53;4979263;27;98211;-62
2023/10/10 15:50:31;;;;;;;;;;;;;;;18.12;50.25;100929.00;4997159;27;100587;-56